Terminal Aerodrome Forecast
Issued by NWS

Home | Current Version | Previous Version | Text Only | Print | Product List | Glossary On
Versions: 1 2 3 4 5 6 7 8 9 10 11 12 13 14 15 16 17 18
000
FTUS46 KMTR 291700 RRA
TAFOAK
TAF
KOAK 291747Z 2918/3024 27006KT P6SM FEW010
     FM292000 29014KT P6SM SCT150
     FM300400 31008KT P6SM SKC
     FM300900 31005KT P6SM SCT010
     FM301100 27005KT P6SM BKN010
     FM301800 30010KT P6SM SCT010=

USA.gov is the U.S. government's official web portal to all federal, state and local government web resources and services.